createdAt,value
2019-02-07T00:00:19.992Z,12.90
2019-02-07T00:02:48.602Z,14.90
2019-02-07T00:05:17.242Z,18.23
2019-02-07T00:07:45.923Z,14.47
2019-02-07T00:10:21.892Z,14.53
2019-02-07T00:12:50.489Z,15.67
2019-02-07T00:15:19.210Z,17.40
2019-02-07T00:17:47.805Z,14.20
2019-02-07T00:20:18.363Z,12.27
2019-02-07T00:22:46.990Z,16.30
2019-02-07T00:25:15.536Z,17.17
2019-02-07T00:27:44.331Z,14.73
2019-02-07T00:30:23.761Z,13.87
2019-02-07T00:32:52.469Z,16.37
2019-02-07T00:35:21.119Z,16.03
2019-02-07T00:37:49.774Z,14.07
2019-02-07T00:40:21.901Z,11.23
2019-02-07T00:42:50.551Z,15.00
2019-02-07T00:45:19.976Z,16.17
2019-02-07T00:47:49.237Z,16.47
2019-02-07T00:50:18.735Z,17.37
2019-02-07T00:52:47.450Z,14.33
2019-02-07T00:55:18.161Z,15.03
2019-02-07T00:57:47.086Z,15.20
2019-02-07T01:00:29.420Z,14.13
2019-02-07T01:02:58.170Z,11.63
2019-02-07T01:05:26.814Z,13.23
2019-02-07T01:07:55.481Z,10.27
2019-02-07T01:10:31.089Z,12.03
2019-02-07T01:12:59.887Z,13.67
2019-02-07T01:15:29.320Z,14.33
2019-02-07T01:17:57.998Z,12.23
2019-02-07T01:20:26.687Z,13.03
2019-02-07T01:22:55.810Z,11.37
2019-02-07T01:25:25.387Z,10.30
2019-02-07T01:27:54.667Z,10.77
2019-02-07T01:30:27.374Z,12.13
2019-02-07T01:32:55.983Z,11.93
2019-02-07T01:35:24.591Z,13.63
2019-02-07T01:37:53.565Z,12.60
2019-02-07T01:40:22.575Z,12.37
2019-02-07T01:42:51.271Z,14.20
2019-02-07T01:45:21.883Z,11.90
2019-02-07T01:47:51.292Z,13.17
2019-02-07T01:50:25.232Z,13.57
2019-02-07T01:52:53.843Z,12.27
2019-02-07T01:55:22.554Z,12.30
2019-02-07T01:57:51.387Z,11.03
2019-02-07T02:00:20.741Z,11.40
2019-02-07T02:02:49.639Z,11.93
2019-02-07T02:05:20.438Z,9.53
2019-02-07T02:07:51.133Z,13.33
2019-02-07T02:10:29.847Z,14.87
2019-02-07T02:12:58.596Z,11.03
2019-02-07T02:15:27.316Z,11.10
2019-02-07T02:17:56.048Z,11.30
2019-02-07T02:20:25.878Z,10.47
2019-02-07T02:22:55.493Z,9.63
2019-02-07T02:25:24.528Z,11.53
2019-02-07T02:27:53.182Z,9.37
2019-02-07T02:30:33.382Z,12.77
2019-02-07T02:33:02.496Z,11.77
2019-02-07T02:35:31.083Z,9.60
2019-02-07T02:37:59.728Z,9.90
2019-02-07T02:40:28.313Z,11.27
2019-02-07T02:42:57.051Z,10.33
2019-02-07T02:45:37.077Z,10.27
2019-02-07T02:47:56.588Z,9.57
2019-02-07T02:50:25.320Z,9.57
2019-02-07T02:52:54.234Z,12.47
2019-02-07T02:55:27.697Z,12.63
2019-02-07T02:57:56.264Z,10.93
2019-02-07T03:00:26.563Z,11.97
2019-02-07T03:03:12.348Z,11.67
2019-02-07T03:05:51.238Z,10.27
2019-02-07T03:08:36.848Z,9.20
2019-02-07T03:11:07.391Z,10.10
2019-02-07T03:13:37.642Z,12.20
2019-02-07T03:16:07.862Z,9.83
2019-02-07T03:18:54.466Z,11.73
2019-02-07T03:21:30.328Z,8.97
2019-02-07T03:24:03.239Z,10.67
2019-02-07T03:26:39.517Z,12.17
2019-02-07T03:29:18.530Z,9.67
2019-02-07T03:31:51.466Z,11.77
2019-02-07T03:34:24.704Z,11.10
2019-02-07T03:37:03.473Z,11.27
2019-02-07T03:39:39.490Z,12.40
2019-02-07T03:42:09.947Z,9.63
2019-02-07T03:44:42.994Z,10.97
2019-02-07T03:47:31.553Z,8.07
2019-02-07T03:50:02.223Z,8.87
2019-02-07T03:52:41.170Z,7.60
2019-02-07T03:55:17.034Z,9.00
2019-02-07T03:57:47.240Z,10.67
2019-02-07T04:00:23.549Z,10.80
2019-02-07T04:02:56.489Z,13.93
2019-02-07T04:05:43.520Z,11.30
2019-02-07T04:08:30.268Z,9.83
2019-02-07T04:11:06.280Z,11.70
2019-02-07T04:13:51.775Z,11.00
2019-02-07T04:16:28.497Z,8.77
2019-02-07T04:19:07.715Z,9.87
2019-02-07T04:21:40.759Z,10.90
2019-02-07T04:24:20.068Z,10.80
2019-02-07T04:26:50.299Z,12.97
2019-02-07T04:29:29.694Z,11.00
2019-02-07T04:32:16.506Z,9.97
2019-02-07T04:34:47.032Z,11.53
2019-02-07T04:37:22.800Z,10.17
2019-02-07T04:39:55.765Z,8.93
2019-02-07T04:42:28.888Z,7.50
2019-02-07T04:45:08.224Z,7.73
2019-02-07T04:47:54.967Z,13.53
2019-02-07T04:50:30.835Z,10.30
2019-02-07T04:53:06.792Z,11.63
2019-02-07T04:55:42.679Z,8.23
2019-02-07T04:58:12.936Z,10.40
2019-02-07T05:00:45.848Z,10.73
2019-02-07T05:03:25.198Z,10.17
2019-02-07T05:06:01.189Z,11.37
2019-02-07T05:08:43.262Z,11.73
2019-02-07T05:11:22.383Z,7.63
2019-02-07T05:13:52.620Z,9.90
2019-02-07T05:16:39.326Z,9.93
2019-02-07T05:19:06.218Z,10.10
2019-02-07T05:21:52.969Z,8.23
2019-02-07T05:24:23.237Z,9.73
2019-02-07T05:26:53.423Z,9.73
2019-02-07T05:29:26.204Z,7.80
2019-02-07T05:32:14.601Z,6.43
2019-02-07T05:34:50.785Z,7.70
2019-02-07T05:37:23.683Z,8.73
2019-02-07T05:39:59.329Z,9.73
2019-02-07T05:42:47.974Z,10.70
2019-02-07T05:45:24.232Z,8.80
2019-02-07T05:48:00.563Z,9.27
2019-02-07T05:50:30.989Z,9.03
2019-02-07T05:53:13.218Z,7.83
2019-02-07T05:55:59.752Z,6.13
2019-02-07T05:58:41.892Z,8.37
2019-02-07T06:01:12.125Z,8.23
2019-02-07T06:03:58.398Z,5.47
2019-02-07T06:06:28.622Z,8.90
2019-02-07T06:09:07.809Z,8.13
2019-02-07T06:11:38.023Z,9.40
2019-02-07T06:14:17.071Z,10.97
2019-02-07T06:17:03.461Z,6.63
2019-02-07T06:19:48.700Z,7.93
2019-02-07T06:22:27.569Z,9.40
2019-02-07T06:25:00.740Z,6.83
2019-02-07T06:27:43.266Z,7.07
2019-02-07T06:30:19.896Z,6.27
2019-02-07T06:32:50.112Z,7.00
2019-02-07T06:35:23.444Z,8.90
2019-02-07T06:37:59.438Z,8.57
2019-02-07T06:40:45.042Z,7.23
2019-02-07T06:43:21.184Z,6.60
2019-02-07T06:45:51.449Z,6.57
2019-02-07T06:48:21.615Z,5.70
2019-02-07T06:51:03.686Z,7.60
2019-02-07T06:53:33.945Z,6.80
2019-02-07T06:56:07.377Z,5.10
2019-02-07T06:58:55.176Z,6.27
2019-02-07T07:01:27.403Z,8.37
2019-02-07T07:04:13.949Z,8.07
2019-02-07T07:06:46.938Z,5.57
2019-02-07T07:09:35.500Z,7.93
2019-02-07T07:12:06.150Z,8.60
2019-02-07T07:14:36.489Z,8.43
2019-02-07T07:17:12.421Z,7.00
2019-02-07T07:19:42.675Z,7.00
2019-02-07T07:22:31.087Z,7.80
2019-02-07T07:25:06.769Z,6.73
2019-02-07T07:27:51.959Z,7.93
2019-02-07T07:30:28.247Z,12.73
2019-02-07T07:32:58.481Z,6.57
2019-02-07T07:35:44.709Z,8.30
2019-02-07T07:38:20.768Z,13.17
2019-02-07T07:41:02.971Z,9.03
2019-02-07T07:43:36.162Z,8.93
2019-02-07T07:46:12.506Z,10.37
2019-02-07T07:48:42.917Z,10.63
2019-02-07T07:51:24.928Z,8.40
2019-02-07T07:53:55.124Z,8.10
2019-02-07T07:56:40.393Z,9.17
2019-02-07T07:59:10.628Z,7.60
2019-02-07T08:01:40.897Z,11.50
2019-02-07T08:04:11.217Z,9.97
2019-02-07T08:06:41.474Z,10.97
2019-02-07T08:09:16.124Z,7.93
2019-02-07T08:11:52.374Z,10.13
2019-02-07T08:14:38.619Z,9.10
2019-02-07T08:17:17.716Z,12.70
2019-02-07T08:20:04.200Z,10.33
2019-02-07T08:22:43.224Z,12.13
2019-02-07T08:25:25.798Z,12.10
2019-02-07T08:28:14.716Z,11.40
2019-02-07T08:31:03.163Z,11.43
2019-02-07T08:33:39.443Z,12.57
2019-02-07T08:36:25.039Z,13.60
2019-02-07T08:39:04.119Z,12.43
2019-02-07T08:41:43.312Z,15.07
2019-02-07T08:44:30.058Z,10.40
2019-02-07T08:47:11.910Z,11.20
2019-02-07T08:49:50.611Z,10.13
2019-02-07T08:52:42.247Z,10.70
2019-02-07T08:55:28.011Z,10.30
2019-02-07T08:58:01.150Z,7.63
2019-02-07T09:00:31.343Z,10.40
2019-02-07T09:03:04.316Z,11.87
2019-02-07T09:05:40.905Z,10.50
2019-02-07T09:08:26.250Z,11.50
2019-02-07T09:11:05.716Z,13.13
2019-02-07T09:13:48.435Z,11.73
2019-02-07T09:16:18.826Z,10.33
2019-02-07T09:18:51.787Z,11.57
2019-02-07T09:21:38.396Z,11.07
2019-02-07T09:24:24.940Z,11.43
2019-02-07T09:26:57.666Z,12.43
2019-02-07T09:29:44.382Z,12.77
2019-02-07T09:32:23.465Z,9.63
2019-02-07T09:34:53.846Z,12.37
2019-02-07T09:37:26.576Z,12.23
2019-02-07T09:39:57.664Z,10.83
2019-02-07T09:42:44.116Z,8.80
2019-02-07T09:45:29.247Z,11.50
2019-02-07T09:48:23.666Z,9.30
2019-02-07T09:50:56.714Z,11.83
2019-02-07T09:53:29.987Z,9.03
2019-02-07T09:56:12.785Z,8.30
2019-02-07T09:58:43.042Z,7.37
2019-02-07T10:01:29.818Z,6.40
2019-02-07T10:04:00.365Z,7.37
2019-02-07T10:06:48.427Z,6.93
2019-02-07T10:09:27.739Z,5.87
2019-02-07T10:12:14.351Z,9.47
2019-02-07T10:15:00.858Z,11.50
2019-02-07T10:17:31.368Z,7.70
2019-02-07T10:20:01.965Z,6.20
2019-02-07T10:22:32.196Z,6.93
2019-02-07T10:25:17.289Z,6.13
2019-02-07T10:27:47.845Z,5.97
2019-02-07T10:30:28.060Z,6.50
2019-02-07T10:33:10.134Z,6.10
2019-02-07T10:35:52.417Z,7.03
2019-02-07T10:38:26.264Z,8.03
2019-02-07T10:40:59.732Z,6.47
2019-02-07T10:43:29.943Z,8.67
2019-02-07T10:46:01.717Z,8.73
2019-02-07T10:48:44.711Z,6.60
2019-02-07T10:51:17.598Z,7.87
2019-02-07T10:54:00.048Z,6.60
2019-02-07T10:56:38.846Z,6.83
2019-02-07T10:59:24.512Z,5.17
2019-02-07T11:02:04.326Z,7.20
2019-02-07T11:04:34.923Z,6.20
2019-02-07T11:07:14.223Z,8.47
2019-02-07T11:10:00.855Z,5.47
2019-02-07T11:12:47.716Z,7.33
2019-02-07T11:15:24.281Z,6.27
2019-02-07T11:18:00.280Z,5.43
2019-02-07T11:20:45.794Z,5.83
2019-02-07T11:23:32.613Z,5.37
2019-02-07T11:26:07.207Z,4.00
2019-02-07T11:28:40.117Z,5.27
2019-02-07T11:31:19.415Z,3.93
2019-02-07T11:33:49.659Z,6.30
2019-02-07T11:36:28.611Z,4.23
2019-02-07T11:39:17.242Z,6.53
2019-02-07T11:42:05.364Z,4.47
2019-02-07T11:44:51.955Z,6.13
2019-02-07T11:47:34.320Z,5.43
2019-02-07T11:50:26.794Z,5.37
2019-02-07T11:53:05.746Z,6.47
2019-02-07T11:55:35.954Z,12.17
2019-02-07T11:58:10.009Z,8.93
2019-02-07T12:00:40.533Z,6.17
2019-02-07T12:03:14.201Z,7.13
2019-02-07T12:05:54.887Z,5.37
2019-02-07T12:08:44.893Z,7.03
2019-02-07T12:11:27.162Z,7.63
2019-02-07T12:14:14.645Z,7.33
2019-02-07T12:16:50.807Z,9.37
2019-02-07T12:19:22.577Z,6.33
2019-02-07T12:22:11.220Z,8.83
2019-02-07T12:24:53.428Z,8.40
2019-02-07T12:27:25.769Z,7.53
2019-02-07T12:29:59.063Z,7.57
2019-02-07T12:32:47.538Z,10.07
2019-02-07T12:35:31.502Z,8.03
2019-02-07T12:38:18.271Z,10.67
2019-02-07T12:41:00.896Z,8.77
2019-02-07T12:43:36.937Z,11.67
2019-02-07T12:46:19.225Z,11.03
2019-02-07T12:48:54.686Z,9.27
2019-02-07T12:51:24.992Z,11.23
2019-02-07T12:54:02.398Z,10.23
2019-02-07T12:56:50.930Z,11.23
2019-02-07T12:59:26.893Z,8.63
2019-02-07T13:01:57.144Z,7.37
2019-02-07T13:04:42.695Z,10.60
2019-02-07T13:07:29.144Z,9.63
2019-02-07T13:10:01.837Z,7.93
2019-02-07T13:12:32.142Z,9.37
2019-02-07T13:15:17.049Z,9.67
2019-02-07T13:17:53.590Z,8.83
2019-02-07T13:20:35.937Z,8.30
2019-02-07T13:23:18.801Z,8.27
2019-02-07T13:26:01.109Z,9.60
2019-02-07T13:28:31.381Z,9.90
2019-02-07T13:31:04.590Z,8.37
2019-02-07T13:33:37.506Z,8.23
2019-02-07T13:36:16.701Z,8.47
2019-02-07T13:38:52.512Z,9.90
2019-02-07T13:41:37.692Z,11.40
2019-02-07T13:44:08.038Z,10.17
2019-02-07T13:46:38.242Z,7.03
2019-02-07T13:49:14.212Z,10.57
2019-02-07T13:52:00.718Z,9.63
2019-02-07T13:54:43.097Z,8.93
2019-02-07T13:57:13.322Z,9.23
2019-02-07T13:59:49.494Z,8.37
2019-02-07T14:02:31.470Z,9.18
2019-02-07T14:05:07.702Z,10.90
2019-02-07T14:07:39.808Z,12.53
2019-02-07T14:10:29.078Z,6.60
2019-02-07T14:13:02.341Z,10.17
2019-02-07T14:15:38.814Z,8.50
2019-02-07T14:18:21.317Z,8.47
2019-02-07T14:20:51.584Z,13.30
2019-02-07T14:23:37.450Z,10.50
2019-02-07T14:26:16.548Z,11.57
2019-02-07T14:28:49.603Z,8.10
2019-02-07T14:31:36.593Z,9.20
2019-02-07T14:34:09.450Z,8.20
2019-02-07T14:36:42.462Z,6.27
2019-02-07T14:39:29.176Z,8.57
2019-02-07T14:42:02.480Z,7.70
2019-02-07T14:44:32.720Z,11.00
2019-02-07T14:47:01.426Z,9.73
2019-02-07T14:49:30.424Z,7.20
2019-02-07T14:51:58.922Z,8.13
2019-02-07T14:54:27.633Z,8.30
2019-02-07T14:56:56.218Z,8.07
2019-02-07T14:59:24.799Z,9.30
2019-02-07T15:01:53.385Z,10.03
2019-02-07T15:04:22.141Z,7.93
2019-02-07T15:06:51.453Z,7.27
2019-02-07T15:09:20.692Z,11.33
2019-02-07T15:11:49.403Z,9.67
2019-02-07T15:14:17.992Z,9.60
2019-02-07T15:16:46.566Z,7.77
2019-02-07T15:19:15.182Z,7.77
2019-02-07T15:21:43.766Z,7.07
2019-02-07T15:24:12.695Z,6.90
2019-02-07T15:26:41.290Z,9.13
2019-02-07T15:29:09.976Z,7.03
2019-02-07T15:31:38.598Z,7.33
2019-02-07T15:34:07.269Z,7.53
2019-02-07T15:36:35.951Z,6.60
2019-02-07T15:39:07.944Z,7.67
2019-02-07T15:41:36.552Z,7.77
2019-02-07T15:44:05.243Z,7.50
2019-02-07T15:46:33.894Z,8.40
2019-02-07T15:49:02.571Z,6.83
2019-02-07T15:51:31.115Z,9.93
2019-02-07T15:53:59.674Z,9.73
2019-02-07T15:56:28.320Z,8.93
2019-02-07T15:59:01.605Z,5.50
2019-02-07T16:01:31.848Z,6.43
2019-02-07T16:04:02.124Z,8.70
2019-02-07T16:06:30.783Z,8.37
2019-02-07T16:09:02.418Z,6.13
2019-02-07T16:11:31.103Z,7.13
2019-02-07T16:13:59.680Z,11.60
2019-02-07T16:16:28.377Z,6.87
2019-02-07T16:18:56.948Z,11.47
2019-02-07T16:21:25.540Z,6.87
2019-02-07T16:23:54.506Z,8.63
2019-02-07T16:26:23.093Z,8.03
2019-02-07T16:28:51.725Z,6.43
2019-02-07T16:31:20.438Z,8.37
2019-02-07T16:33:49.021Z,10.23
2019-02-07T16:36:17.753Z,8.50
2019-02-07T16:38:46.609Z,9.17
2019-02-07T16:41:15.270Z,10.00
2019-02-07T16:43:43.850Z,7.50
2019-02-07T16:46:12.730Z,8.90
2019-02-07T16:48:41.338Z,12.30
2019-02-07T16:51:10.004Z,12.17
2019-02-07T16:53:38.571Z,8.63
2019-02-07T16:56:07.332Z,7.37
2019-02-07T16:58:35.894Z,11.53
2019-02-07T17:01:06.902Z,8.67
2019-02-07T17:03:35.483Z,10.43
2019-02-07T17:06:05.272Z,10.87
2019-02-07T17:08:33.900Z,11.23
2019-02-07T17:11:02.794Z,10.37
2019-02-07T17:13:31.385Z,10.47
2019-02-07T17:16:00.045Z,12.80
2019-02-07T17:18:28.682Z,14.30
2019-02-07T17:20:57.301Z,14.07
2019-02-07T17:23:25.923Z,12.47
2019-02-07T17:25:54.917Z,12.30
2019-02-07T17:28:23.763Z,11.90
2019-02-07T17:30:52.439Z,12.57
2019-02-07T17:33:21.018Z,14.30
2019-02-07T17:35:50.330Z,13.23
2019-02-07T17:38:19.064Z,13.47
2019-02-07T17:40:47.689Z,11.87
2019-02-07T17:43:16.234Z,15.47
2019-02-07T17:45:44.923Z,12.73
2019-02-07T17:48:13.506Z,12.23
2019-02-07T17:50:42.295Z,16.73
2019-02-07T17:53:12.692Z,14.33
2019-02-07T17:55:41.461Z,13.50
2019-02-07T17:58:11.365Z,18.00
2019-02-07T18:00:47.182Z,12.70
2019-02-07T18:03:15.733Z,12.37
2019-02-07T18:05:44.518Z,15.70
2019-02-07T18:08:13.204Z,13.50
2019-02-07T18:10:42.145Z,14.70
2019-02-07T18:13:10.879Z,13.17
2019-02-07T18:15:39.472Z,13.83
2019-02-07T18:18:08.189Z,16.33
2019-02-07T18:20:36.755Z,15.13
2019-02-07T18:23:05.549Z,15.00
2019-02-07T18:25:34.118Z,13.40
2019-02-07T18:28:03.114Z,13.33
2019-02-07T18:30:31.750Z,16.87
2019-02-07T18:33:00.363Z,15.23
2019-02-07T18:35:28.938Z,14.93
2019-02-07T18:37:57.529Z,17.30
2019-02-07T18:40:28.259Z,16.20
2019-02-07T18:42:56.862Z,15.87
2019-02-07T18:45:25.509Z,15.90
2019-02-07T18:47:54.124Z,17.30
2019-02-07T18:50:31.437Z,19.27
2019-02-07T18:53:00.184Z,17.43
2019-02-07T18:55:28.847Z,19.80
2019-02-07T18:57:57.485Z,17.30
2019-02-07T19:00:28.771Z,15.83
2019-02-07T19:02:57.449Z,16.10
2019-02-07T19:05:26.384Z,18.87
2019-02-07T19:07:54.981Z,18.10
2019-02-07T19:10:25.387Z,17.93
2019-02-07T19:12:53.969Z,18.20
2019-02-07T19:15:28.186Z,18.93
2019-02-07T19:17:56.822Z,17.10
2019-02-07T19:20:25.389Z,17.43
2019-02-07T19:22:54.116Z,20.33
2019-02-07T19:25:22.677Z,20.87
2019-02-07T19:27:51.626Z,18.80
2019-02-07T19:30:23.032Z,20.77
2019-02-07T19:32:51.807Z,20.10
2019-02-07T19:35:20.656Z,22.07
2019-02-07T19:37:49.380Z,18.90
2019-02-07T19:40:19.781Z,20.83
2019-02-07T19:42:48.597Z,20.87
2019-02-07T19:45:19.806Z,20.73
2019-02-07T19:47:48.426Z,17.43
2019-02-07T19:50:19.788Z,18.37
2019-02-07T19:52:49.093Z,19.20
2019-02-07T19:55:19.938Z,23.07
2019-02-07T19:57:48.749Z,21.30
2019-02-07T20:00:20.559Z,21.60
2019-02-07T20:02:49.932Z,22.17
2019-02-07T20:05:18.918Z,22.23
2019-02-07T20:07:47.541Z,21.37
2019-02-07T20:10:22.112Z,20.53
2019-02-07T20:12:51.259Z,18.07
2019-02-07T20:15:34.650Z,22.13
2019-02-07T20:18:04.875Z,20.90
2019-02-07T20:20:33.637Z,21.10
2019-02-07T20:23:02.411Z,24.93
2019-02-07T20:25:31.172Z,23.70
2019-02-07T20:28:00.201Z,23.90
2019-02-07T20:30:31.916Z,23.30
2019-02-07T20:33:00.609Z,21.30
2019-02-07T20:35:29.443Z,20.30
2019-02-07T20:37:58.064Z,21.43
2019-02-07T20:40:28.451Z,19.03
2019-02-07T20:42:57.503Z,19.20
2019-02-07T20:45:26.558Z,24.63
2019-02-07T20:47:55.229Z,26.57
2019-02-07T20:50:27.642Z,21.13
2019-02-07T20:52:56.511Z,24.43
2019-02-07T20:55:26.221Z,23.60
2019-02-07T20:57:55.460Z,18.90
2019-02-07T21:00:35.135Z,23.27
2019-02-07T21:03:04.215Z,22.87
2019-02-07T21:05:33.345Z,22.67
2019-02-07T21:08:02.024Z,24.13
2019-02-07T21:10:32.653Z,22.53
2019-02-07T21:13:01.594Z,20.97
2019-02-07T21:15:30.275Z,24.33
2019-02-07T21:17:58.946Z,21.53
2019-02-07T21:20:29.465Z,20.73
2019-02-07T21:22:59.197Z,21.37
2019-02-07T21:25:33.742Z,21.40
2019-02-07T21:28:02.414Z,21.10
2019-02-07T21:30:32.222Z,29.00
2019-02-07T21:33:00.814Z,30.77
2019-02-07T21:35:29.911Z,26.67
2019-02-07T21:37:58.644Z,22.57
2019-02-07T21:40:31.303Z,24.03
2019-02-07T21:43:00.649Z,24.13
2019-02-07T21:45:29.968Z,24.33
2019-02-07T21:48:00.064Z,23.40
2019-02-07T21:50:32.470Z,21.07
2019-02-07T21:53:01.176Z,25.53
2019-02-07T21:55:31.732Z,22.63
2019-02-07T21:58:00.397Z,21.87
2019-02-07T22:00:34.043Z,24.03
2019-02-07T22:03:04.267Z,20.73
2019-02-07T22:05:32.912Z,23.77
2019-02-07T22:08:01.531Z,23.20
2019-02-07T22:10:30.175Z,23.87
2019-02-07T22:12:58.854Z,25.87
2019-02-07T22:15:28.398Z,24.43
2019-02-07T22:17:57.149Z,23.67
2019-02-07T22:20:30.758Z,25.20
2019-02-07T22:22:59.654Z,25.13
2019-02-07T22:25:28.281Z,21.07
2019-02-07T22:27:56.975Z,26.23
2019-02-07T22:30:28.254Z,27.60
2019-02-07T22:32:57.249Z,22.50
2019-02-07T22:35:25.848Z,20.87
2019-02-07T22:37:54.494Z,25.60
2019-02-07T22:40:24.691Z,25.10
2019-02-07T22:42:53.544Z,24.27
2019-02-07T22:45:25.078Z,25.53
2019-02-07T22:47:53.617Z,29.23
2019-02-07T22:50:26.916Z,28.60
2019-02-07T22:52:56.928Z,25.07
2019-02-07T22:55:26.349Z,25.07
2019-02-07T22:57:54.985Z,24.70
2019-02-07T23:00:34.734Z,24.00
2019-02-07T23:03:08.539Z,23.23
2019-02-07T23:05:37.178Z,23.27
2019-02-07T23:08:06.186Z,23.67
2019-02-07T23:10:34.837Z,24.50
2019-02-07T23:13:04.957Z,24.00
2019-02-07T23:15:33.549Z,27.17
2019-02-07T23:18:02.212Z,25.53
2019-02-07T23:20:30.834Z,23.10
2019-02-07T23:23:05.064Z,23.10
2019-02-07T23:25:29.871Z,27.17
2019-02-07T23:27:58.750Z,26.60
2019-02-07T23:30:27.527Z,26.17
2019-02-07T23:32:56.197Z,25.37
2019-02-07T23:35:24.804Z,25.37
2019-02-07T23:37:53.413Z,24.60
2019-02-07T23:40:22.618Z,24.37
2019-02-07T23:42:51.630Z,26.30
2019-02-07T23:45:21.758Z,24.33
2019-02-07T23:47:50.419Z,26.37
2019-02-07T23:50:19.898Z,28.63
2019-02-07T23:52:48.481Z,27.77
2019-02-07T23:55:17.517Z,24.13
2019-02-07T23:57:46.840Z,23.97
